createdAt,value
2018-12-26T19:53:53.403Z,86.22
2018-12-26T19:56:23.593Z,80.26
2018-12-26T19:58:53.590Z,79.55
2018-12-26T20:01:25.063Z,80.28
2018-12-26T20:03:55.285Z,79.78
2018-12-26T20:06:25.534Z,80.17
2018-12-26T20:08:55.774Z,80.65
2018-12-26T20:11:25.946Z,80.86
2018-12-26T20:13:56.179Z,81.09
2018-12-26T20:16:26.348Z,80.95
2018-12-26T20:18:56.609Z,81.03
2018-12-26T20:21:26.820Z,80.02
2018-12-26T20:23:57.188Z,79.99
2018-12-26T20:26:28.809Z,80.19
2018-12-26T20:28:58.977Z,78.92
2018-12-26T20:31:29.238Z,79.13
2018-12-26T20:33:59.452Z,79.31
2018-12-26T20:36:29.660Z,78.84
2018-12-26T20:38:59.510Z,78.48
2018-12-26T20:41:30.529Z,79.09
2018-12-26T20:44:00.533Z,77.82
2018-12-26T20:46:30.490Z,78.18
2018-12-26T20:49:00.415Z,77.62
2018-12-26T20:51:30.407Z,77.84
2018-12-26T20:54:00.447Z,77.46
2018-12-26T20:56:30.478Z,77.64
2018-12-26T20:59:00.406Z,77.57
2018-12-26T21:01:30.440Z,77.38
2018-12-26T21:04:00.493Z,76.22
2018-12-26T21:06:30.400Z,76.50
2018-12-26T21:09:01.318Z,75.79
2018-12-26T21:11:33.159Z,75.60
2018-12-26T21:14:04.148Z,75.47
2018-12-26T21:16:34.186Z,75.31
2018-12-26T21:19:04.126Z,73.98
2018-12-26T21:21:34.012Z,74.86
2018-12-26T21:24:03.987Z,74.65
2018-12-26T21:26:33.908Z,73.54
2018-12-26T21:29:03.871Z,72.80
2018-12-26T21:31:34.228Z,72.39
2018-12-26T21:34:04.436Z,73.23
2018-12-26T21:36:34.371Z,73.86
2018-12-26T21:39:06.059Z,74.06
2018-12-26T21:41:36.755Z,73.75
2018-12-26T21:44:06.802Z,74.84
2018-12-26T21:46:36.725Z,74.32
2018-12-26T21:49:07.829Z,74.52
2018-12-26T21:51:37.757Z,74.34
2018-12-26T21:54:07.704Z,75.16
2018-12-26T21:56:37.632Z,75.32
2018-12-26T21:59:07.583Z,74.40
2018-12-26T22:01:37.457Z,75.35
2018-12-26T22:04:07.554Z,75.33
2018-12-26T22:06:37.388Z,74.65
2018-12-26T22:09:07.924Z,73.89
2018-12-26T22:11:37.813Z,74.66
2018-12-26T22:14:07.717Z,74.86
2018-12-26T22:16:37.666Z,75.16
2018-12-26T22:19:07.546Z,74.60
2018-12-26T22:21:37.529Z,74.37
2018-12-26T22:24:07.375Z,74.71
2018-12-26T22:26:43.227Z,75.01
2018-12-26T22:29:09.939Z,73.75
2018-12-26T22:31:39.884Z,74.54
2018-12-26T22:34:09.752Z,75.26
2018-12-26T22:36:39.694Z,73.90
2018-12-26T22:39:09.561Z,73.31
2018-12-26T22:41:39.487Z,74.47
2018-12-26T22:44:09.352Z,74.10
2018-12-26T22:46:39.334Z,74.25
2018-12-26T22:49:09.284Z,74.16
2018-12-26T22:51:42.082Z,73.54
2018-12-26T22:54:10.792Z,73.59
2018-12-26T22:56:40.652Z,74.13
2018-12-26T22:59:10.529Z,74.09
2018-12-26T23:01:40.437Z,74.17
2018-12-26T23:04:10.437Z,73.99
2018-12-26T23:06:40.267Z,74.11
2018-12-26T23:09:10.138Z,73.86
2018-12-26T23:11:40.100Z,73.75
2018-12-26T23:14:10.077Z,73.86
2018-12-26T23:16:40.147Z,74.55
2018-12-26T23:19:10.156Z,75.37
2018-12-26T23:21:40.118Z,75.64
2018-12-26T23:24:10.039Z,75.84
2018-12-26T23:26:39.953Z,75.44
2018-12-26T23:29:09.782Z,75.49
2018-12-26T23:31:39.829Z,74.96
2018-12-26T23:34:09.755Z,75.42
2018-12-26T23:36:39.627Z,75.76
2018-12-26T23:39:09.621Z,75.93
2018-12-26T23:41:39.467Z,75.77
2018-12-26T23:44:09.349Z,74.21
2018-12-26T23:46:39.334Z,74.32
2018-12-26T23:49:09.311Z,74.74
2018-12-26T23:51:39.234Z,74.09
2018-12-26T23:54:09.144Z,74.26
2018-12-26T23:56:38.998Z,75.67
2018-12-26T23:59:08.862Z,75.76
